Time;durP1;ratioP1;P1;durP2;ratioP2;P2;SDS_P1;SDS_P2;PMS_P1;PMS_P2;Temp;Humidity;BMP_temperature;BMP_pressure;BME280_temperature;BME280_humidity;BME280_pressure;Samples;Min_cycle;Max_cycle;Signal;HPM_P1;HPM_P2
2021/08/26 00:07:36;;;;;;;3.50;2.45;;;17.40;99.90;;;;;;5018832;28;20211;-80
2021/08/26 00:10:07;;;;;;;3.10;2.80;;;17.50;99.90;;;;;;5034606;28;20228;-80
2021/08/26 00:12:35;;;;;;;9.93;2.90;;;17.50;99.90;;;;;;5039069;28;20160;-80
2021/08/26 00:15:01;;;;;;;8.88;3.78;;;17.50;99.90;;;;;;5023128;28;20212;-79
2021/08/26 00:17:27;;;;;;;3.55;3.13;;;17.50;99.90;;;;;;5016199;28;20196;-81
2021/08/26 00:19:53;;;;;;;4.00;3.10;;;17.50;99.90;;;;;;5016748;28;20628;-80
2021/08/26 00:22:19;;;;;;;4.53;2.95;;;17.40;99.90;;;;;;5015009;28;20192;-80
2021/08/26 00:24:46;;;;;;;4.72;3.20;;;17.30;99.90;;;;;;5016558;28;20575;-80
2021/08/26 00:27:11;;;;;;;4.38;3.20;;;17.30;99.90;;;;;;5014905;28;20188;-79
2021/08/26 00:29:38;;;;;;;5.70;3.40;;;17.30;99.90;;;;;;5015811;28;20165;-80
2021/08/26 00:32:05;;;;;;;9.68;3.17;;;17.20;99.90;;;;;;5014237;28;20168;-80
2021/08/26 00:34:30;;;;;;;5.35;3.78;;;17.10;99.90;;;;;;5014250;28;20688;-80
2021/08/26 00:36:56;;;;;;;4.57;3.20;;;17.20;99.90;;;;;;5015185;28;20181;-80
2021/08/26 00:39:22;;;;;;;6.60;3.40;;;17.30;99.90;;;;;;5015391;28;20176;-80
2021/08/26 00:41:50;;;;;;;7.30;3.10;;;17.40;99.90;;;;;;5015130;28;20278;-79
2021/08/26 00:44:17;;;;;;;4.55;2.80;;;17.50;99.90;;;;;;5015419;28;20522;-80
2021/08/26 00:46:46;;;;;;;5.40;3.42;;;17.50;99.90;;;;;;5015207;28;20189;-81
2021/08/26 00:49:17;;;;;;;9.05;4.07;;;17.40;99.90;;;;;;5015303;28;20169;-80
2021/08/26 00:51:43;;;;;;;3.65;3.35;;;17.40;99.90;;;;;;5015167;28;20169;-79
2021/08/26 00:54:09;;;;;;;4.95;3.10;;;17.50;99.90;;;;;;5014788;28;20688;-80
2021/08/26 00:56:39;;;;;;;7.43;3.70;;;17.50;99.90;;;;;;5014631;28;20193;-79
2021/08/26 00:59:06;;;;;;;5.10;3.85;;;17.60;99.90;;;;;;5015090;28;20195;-80
2021/08/26 01:01:46;;;;;;;6.05;3.78;;;17.40;99.90;;;;;;5014989;28;20516;-80
2021/08/26 01:04:17;;;;;;;10.05;4.90;;;17.40;99.90;;;;;;5014794;28;20219;-80
2021/08/26 01:06:52;;;;;;;8.43;4.47;;;17.40;99.90;;;;;;5014981;28;20188;-80
2021/08/26 01:09:25;;;;;;;11.40;4.32;;;17.50;99.90;;;;;;5014991;28;20199;-80
2021/08/26 01:11:53;;;;;;;9.55;5.32;;;17.50;99.90;;;;;;5014553;28;20165;-80
2021/08/26 01:14:19;;;;;;;10.82;5.30;;;17.50;99.90;;;;;;5014465;28;20292;-80
2021/08/26 01:16:45;;;;;;;7.63;5.43;;;17.60;99.90;;;;;;5014464;28;20276;-80
2021/08/26 01:19:10;;;;;;;7.18;6.25;;;17.60;99.90;;;;;;5014840;28;20252;-81
2021/08/26 01:21:36;;;;;;;8.27;5.65;;;17.50;99.90;;;;;;5014442;28;20192;-80
2021/08/26 01:24:07;;;;;;;9.25;6.22;;;17.40;99.90;;;;;;5014840;28;20200;-81
2021/08/26 01:26:42;;;;;;;7.93;5.68;;;17.40;99.90;;;;;;5014637;28;20215;-80
2021/08/26 01:29:10;;;;;;;6.47;5.72;;;17.40;99.90;;;;;;5012898;28;20245;-80
2021/08/26 01:31:39;;;;;;;8.48;5.47;;;17.40;99.90;;;;;;5014334;28;20177;-81
2021/08/26 01:34:06;;;;;;;6.15;5.55;;;17.40;99.90;;;;;;5014151;28;20692;-80
2021/08/26 01:36:34;;;;;;;7.78;4.93;;;17.50;99.90;;;;;;5014482;28;20222;-79
2021/08/26 01:39:08;;;;;;;5.72;5.10;;;17.40;99.90;;;;;;5014898;28;20246;-79
2021/08/26 01:41:41;;;;;;;5.68;5.10;;;17.50;99.90;;;;;;5014707;28;20242;-79
2021/08/26 01:44:08;;;;;;;9.38;5.57;;;17.40;99.90;;;;;;5014955;28;20164;-79
2021/08/26 01:46:33;;;;;;;9.63;5.45;;;17.50;99.90;;;;;;5012964;28;20243;-80
2021/08/26 01:48:59;;;;;;;8.80;4.60;;;17.30;99.90;;;;;;5014453;28;20633;-81
2021/08/26 01:51:24;;;;;;;5.15;4.65;;;17.30;99.90;;;;;;5014557;28;20168;-80
2021/08/26 01:53:50;;;;;;;4.97;4.53;;;17.30;99.90;;;;;;5012981;28;20270;-81
2021/08/26 01:56:19;;;;;;;11.93;4.60;;;17.30;99.90;;;;;;5014042;28;20191;-80
2021/08/26 01:58:45;;;;;;;6.30;4.63;;;17.30;99.90;;;;;;5013041;28;20177;-80
2021/08/26 02:01:10;;;;;;;4.82;4.38;;;17.20;99.90;;;;;;5014228;28;20295;-80
2021/08/26 02:03:37;;;;;;;10.45;5.40;;;17.40;99.90;;;;;;5014494;28;20183;-80
2021/08/26 02:06:03;;;;;;;6.70;4.75;;;17.50;99.90;;;;;;5014624;28;20303;-81
2021/08/26 02:08:29;;;;;;;5.03;4.63;;;17.40;99.90;;;;;;5014638;28;20259;-80
2021/08/26 02:10:55;;;;;;;6.28;4.88;;;17.40;99.90;;;;;;5012994;28;20164;-81
2021/08/26 02:13:21;;;;;;;6.45;5.20;;;17.30;99.90;;;;;;5013210;28;20180;-81
2021/08/26 02:15:46;;;;;;;5.50;4.90;;;17.30;99.90;;;;;;5014117;28;20204;-80
2021/08/26 02:18:12;;;;;;;7.60;4.20;;;17.40;99.90;;;;;;5014864;28;20583;-80
2021/08/26 02:20:38;;;;;;;5.25;4.80;;;17.30;99.90;;;;;;5013324;28;20194;-80
2021/08/26 02:23:04;;;;;;;5.95;5.35;;;17.20;99.90;;;;;;5014494;28;20264;-81
2021/08/26 02:25:30;;;;;;;5.65;5.13;;;17.30;99.90;;;;;;5014198;28;20531;-80
2021/08/26 02:27:55;;;;;;;5.88;4.82;;;17.10;99.90;;;;;;5014163;28;20267;-80
2021/08/26 02:30:21;;;;;;;6.22;4.60;;;17.20;99.90;;;;;;5013226;28;20167;-80
2021/08/26 02:32:47;;;;;;;5.32;4.90;;;17.10;99.90;;;;;;5013335;28;20584;-80
2021/08/26 02:35:13;;;;;;;5.40;4.90;;;17.30;99.90;;;;;;5012979;28;20291;-80
2021/08/26 02:37:38;;;;;;;7.35;5.40;;;17.30;99.90;;;;;;5011668;28;20185;-79
2021/08/26 02:40:05;;;;;;;4.95;4.45;;;17.30;99.90;;;;;;5013295;28;20700;-80
2021/08/26 02:42:31;;;;;;;4.65;4.15;;;17.10;99.90;;;;;;5013077;28;20231;-80
2021/08/26 02:44:56;;;;;;;5.18;4.68;;;17.20;99.90;;;;;;5013170;28;21247;-80
2021/08/26 02:47:22;;;;;;;7.45;4.75;;;17.10;99.90;;;;;;5013099;28;20189;-80
2021/08/26 02:49:48;;;;;;;6.85;4.80;;;17.10;99.90;;;;;;5013222;28;20638;-80
2021/08/26 02:52:14;;;;;;;8.48;3.92;;;17.10;99.90;;;;;;5011707;28;20161;-80
2021/08/26 02:54:39;;;;;;;4.70;4.30;;;17.20;99.90;;;;;;5013494;28;20261;-80
2021/08/26 02:57:05;;;;;;;5.28;4.28;;;17.10;99.90;;;;;;5015866;28;20709;-81
2021/08/26 02:59:31;;;;;;;4.50;4.10;;;17.10;99.90;;;;;;5016273;28;20169;-80
2021/08/26 03:01:57;;;;;;;8.23;4.32;;;17.20;99.90;;;;;;5015543;28;20167;-81
2021/08/26 03:04:23;;;;;;;4.93;4.03;;;17.20;99.90;;;;;;5015935;28;20248;-80
2021/08/26 03:06:48;;;;;;;5.63;4.43;;;17.20;99.90;;;;;;5013842;28;20184;-81
2021/08/26 03:09:17;;;;;;;7.35;4.85;;;17.20;99.90;;;;;;5015527;28;20624;-81
2021/08/26 03:11:42;;;;;;;4.95;4.55;;;17.20;99.90;;;;;;5014782;28;20164;-80
2021/08/26 03:14:08;;;;;;;5.78;5.18;;;17.20;99.90;;;;;;5014162;28;20255;-81
2021/08/26 03:16:34;;;;;;;5.47;4.97;;;17.20;99.90;;;;;;5014116;28;20560;-81
2021/08/26 03:19:00;;;;;;;5.50;5.05;;;17.20;99.90;;;;;;5012346;28;20561;-80
2021/08/26 03:21:26;;;;;;;6.57;5.78;;;17.20;99.90;;;;;;5014806;28;20289;-79
2021/08/26 03:23:51;;;;;;;6.35;4.82;;;17.20;99.90;;;;;;5015110;28;20168;-80
2021/08/26 03:26:17;;;;;;;8.02;5.68;;;17.20;99.90;;;;;;5015102;28;20194;-82
2021/08/26 03:28:42;;;;;;;5.50;5.03;;;17.30;99.90;;;;;;5014826;28;20177;-79
2021/08/26 03:31:08;;;;;;;6.50;6.00;;;17.40;99.90;;;;;;5015629;28;20524;-81
2021/08/26 03:33:34;;;;;;;5.47;4.90;;;17.40;99.90;;;;;;5014937;28;20172;-81
2021/08/26 03:36:00;;;;;;;6.07;5.47;;;17.50;99.90;;;;;;5014027;28;20168;-81
2021/08/26 03:38:26;;;;;;;5.65;5.03;;;17.50;99.90;;;;;;5014648;28;20179;-80
2021/08/26 03:40:52;;;;;;;5.57;3.40;;;17.50;99.90;;;;;;5015278;28;20650;-80
2021/08/26 03:43:18;;;;;;;2.67;2.30;;;17.40;99.90;;;;;;5013824;28;20164;-79
2021/08/26 03:45:43;;;;;;;7.20;2.25;;;17.10;99.90;;;;;;5012936;28;20169;-80
2021/08/26 03:48:09;;;;;;;1.92;1.70;;;16.60;99.90;;;;;;5014117;28;20547;-80
2021/08/26 03:50:35;;;;;;;3.70;1.75;;;16.50;99.90;;;;;;5015008;28;20172;-80
2021/08/26 03:53:01;;;;;;;4.07;1.85;;;16.50;99.90;;;;;;5018581;28;20222;-80
2021/08/26 03:55:26;;;;;;;2.53;1.85;;;16.60;99.90;;;;;;5023084;28;20204;-79
2021/08/26 03:57:52;;;;;;;1.52;1.20;;;16.60;99.90;;;;;;5030909;28;20173;-79
2021/08/26 04:00:18;;;;;;;5.15;1.55;;;16.60;99.90;;;;;;5024312;28;20207;-81
2021/08/26 04:02:43;;;;;;;3.17;1.40;;;16.70;99.90;;;;;;5015607;28;20520;-81
2021/08/26 04:05:09;;;;;;;7.43;2.25;;;16.60;99.90;;;;;;5013370;28;20165;-81
2021/08/26 04:07:35;;;;;;;5.55;2.05;;;16.50;99.90;;;;;;5012850;28;20275;-81
2021/08/26 04:10:00;;;;;;;7.45;1.70;;;16.40;99.90;;;;;;5012782;28;20240;-80
2021/08/26 04:12:27;;;;;;;5.72;1.35;;;16.40;99.90;;;;;;5012516;28;20204;-81
2021/08/26 04:14:54;;;;;;;5.07;1.52;;;16.50;99.90;;;;;;5012616;28;20286;-81
2021/08/26 04:17:23;;;;;;;5.15;1.95;;;16.60;99.90;;;;;;5012575;28;20192;-80
2021/08/26 04:19:48;;;;;;;7.82;1.85;;;16.80;99.90;;;;;;5012602;28;20636;-80
2021/08/26 04:22:14;;;;;;;2.78;1.55;;;16.90;99.90;;;;;;5012601;28;20195;-80
2021/08/26 04:24:40;;;;;;;5.38;2.30;;;17.10;99.90;;;;;;5046233;22;20234;-80
2021/08/26 04:27:07;;;;;;;3.33;1.92;;;17.10;99.90;;;;;;5049311;28;20286;-80
2021/08/26 04:29:32;;;;;;;3.88;1.88;;;17.20;99.90;;;;;;5051650;28;20661;-80
2021/08/26 04:31:58;;;;;;;4.40;1.88;;;17.30;99.90;;;;;;5050229;28;20167;-79
2021/08/26 04:34:24;;;;;;;6.45;2.17;;;17.30;99.90;;;;;;5052261;28;20198;-79
2021/08/26 04:36:50;;;;;;;3.65;2.28;;;17.20;99.90;;;;;;5051421;28;20187;-80
2021/08/26 04:39:15;;;;;;;4.78;2.67;;;17.30;99.90;;;;;;5054863;28;20685;-80
2021/08/26 04:41:42;;;;;;;8.02;2.38;;;17.10;99.90;;;;;;5053911;28;20163;-80
2021/08/26 04:44:08;;;;;;;8.75;2.42;;;17.10;99.90;;;;;;5055380;28;20529;-80
2021/08/26 04:46:34;;;;;;;5.03;2.35;;;16.90;99.90;;;;;;5053940;28;20209;-80
2021/08/26 04:49:00;;;;;;;8.05;2.80;;;17.10;99.90;;;;;;5055258;28;20649;-80
2021/08/26 04:51:25;;;;;;;11.07;2.45;;;17.10;99.90;;;;;;5053550;28;20258;-80
2021/08/26 04:53:51;;;;;;;4.80;2.22;;;17.10;99.90;;;;;;5055266;28;20247;-85
2021/08/26 04:56:17;;;;;;;5.90;2.50;;;17.10;99.90;;;;;;5055079;28;20171;-81
2021/08/26 04:58:43;;;;;;;7.75;2.60;;;16.90;99.90;;;;;;5055568;28;20172;-81
2021/08/26 05:01:08;;;;;;;10.50;2.67;;;16.80;99.90;;;;;;5053385;28;20266;-80
2021/08/26 05:03:34;;;;;;;4.93;1.98;;;16.60;99.90;;;;;;5053168;28;20191;-80
2021/08/26 05:06:03;;;;;;;5.55;1.98;;;16.50;99.90;;;;;;5053389;28;20174;-80
2021/08/26 05:08:29;;;;;;;6.47;1.92;;;16.40;99.90;;;;;;5053382;28;20164;-80
2021/08/26 05:10:54;;;;;;;6.53;2.58;;;16.50;99.90;;;;;;5053066;28;20167;-80
2021/08/26 05:13:20;;;;;;;5.53;2.55;;;16.50;99.90;;;;;;5052895;28;20209;-81
2021/08/26 05:15:45;;;;;;;7.18;2.22;;;16.60;99.90;;;;;;5052629;28;20337;-79
2021/08/26 05:18:11;;;;;;;6.20;2.42;;;16.60;99.90;;;;;;5052642;28;20522;-80
2021/08/26 05:20:37;;;;;;;8.55;2.70;;;16.70;99.90;;;;;;5053013;28;20191;-79
2021/08/26 05:23:02;;;;;;;6.28;2.35;;;16.80;99.90;;;;;;5052700;28;20171;-80
2021/08/26 05:25:28;;;;;;;5.35;2.28;;;16.90;99.90;;;;;;5054067;28;20193;-80
2021/08/26 05:27:54;;;;;;;7.82;1.98;;;16.90;99.90;;;;;;5052697;28;20227;-79
2021/08/26 05:30:20;;;;;;;9.95;2.58;;;17.00;99.90;;;;;;5054246;28;20167;-79
2021/08/26 05:32:46;;;;;;;8.27;2.40;;;17.10;99.90;;;;;;5054131;28;20163;-80
2021/08/26 05:35:12;;;;;;;6.35;2.15;;;17.00;99.90;;;;;;5053535;28;20269;-80
2021/08/26 05:37:38;;;;;;;8.95;2.28;;;17.10;99.90;;;;;;5052491;28;20214;-80
2021/08/26 05:40:05;;;;;;;7.72;1.80;;;17.10;99.90;;;;;;5054094;28;20205;-80
2021/08/26 05:42:31;;;;;;;15.43;2.47;;;17.20;99.90;;;;;;5052698;28;20167;-80
2021/08/26 05:44:56;;;;;;;5.13;2.05;;;17.20;99.90;;;;;;5055194;28;20262;-79
2021/08/26 05:47:22;;;;;;;8.38;2.05;;;17.20;99.90;;;;;;5055818;28;20237;-80
2021/08/26 05:49:48;;;;;;;6.35;2.33;;;17.20;99.90;;;;;;5064048;28;20163;-79
2021/08/26 05:52:13;;;;;;;4.88;2.00;;;17.30;99.90;;;;;;5067951;28;20651;-79
2021/08/26 05:54:39;;;;;;;7.18;2.25;;;17.30;99.90;;;;;;5067740;28;20203;-79
2021/08/26 05:57:05;;;;;;;8.15;2.38;;;17.40;99.90;;;;;;5067400;28;20198;-80
2021/08/26 05:59:30;;;;;;;7.60;2.30;;;17.50;99.90;;;;;;5068864;28;20201;-80
2021/08/26 06:01:56;;;;;;;6.38;2.58;;;17.60;99.90;;;;;;5072104;28;20650;-80
2021/08/26 06:04:22;;;;;;;8.25;2.47;;;17.60;99.90;;;;;;5070402;28;20375;-82
2021/08/26 06:06:47;;;;;;;9.63;3.05;;;17.60;99.90;;;;;;5070644;28;20199;-79
2021/08/26 06:09:13;;;;;;;9.88;2.72;;;17.50;99.90;;;;;;5064640;28;20589;-83
2021/08/26 06:11:38;;;;;;;2.83;1.90;;;17.70;99.90;;;;;;5053466;28;20167;-83
2021/08/26 06:14:04;;;;;;;10.80;2.72;;;17.70;99.90;;;;;;5053024;28;20207;-79
2021/08/26 06:16:30;;;;;;;9.13;2.65;;;17.60;99.90;;;;;;5053690;28;20193;-79
2021/08/26 06:18:55;;;;;;;11.30;3.22;;;17.60;99.90;;;;;;5053475;28;20186;-79
2021/08/26 06:21:21;;;;;;;7.32;2.40;;;17.70;99.90;;;;;;5052230;28;20257;-79
2021/08/26 06:23:46;;;;;;;11.98;3.05;;;17.70;99.90;;;;;;5052955;28;20643;-78
2021/08/26 06:26:12;;;;;;;12.52;3.28;;;17.80;99.90;;;;;;5053233;28;20178;-79
2021/08/26 06:28:38;;;;;;;9.48;2.97;;;17.80;99.90;;;;;;5053130;28;20250;-78
2021/08/26 06:31:04;;;;;;;13.52;2.17;;;17.80;99.90;;;;;;5053354;28;20647;-78
2021/08/26 06:33:29;;;;;;;6.00;3.22;;;17.90;99.90;;;;;;5053110;28;20178;-78
2021/08/26 06:35:55;;;;;;;19.92;2.90;;;18.10;99.90;;;;;;5052854;28;20206;-78
2021/08/26 06:38:21;;;;;;;9.63;2.90;;;18.10;99.90;;;;;;5052424;28;20191;-81
2021/08/26 06:40:46;;;;;;;11.85;2.53;;;18.20;99.90;;;;;;5053188;28;20179;-79
2021/08/26 06:45:42;;;;;;;8.38;2.60;;;18.20;99.90;;;;;;5051371;28;20233;-79
2021/08/26 06:48:08;;;;;;;13.13;3.25;;;18.20;99.90;;;;;;5051232;28;20594;-80
2021/08/26 06:50:33;;;;;;;8.02;2.88;;;18.10;99.90;;;;;;5052549;28;20167;-82
2021/08/26 06:52:59;;;;;;;16.02;2.58;;;18.00;99.90;;;;;;5051332;28;20194;-79
2021/08/26 06:55:25;;;;;;;10.55;3.05;;;18.10;99.90;;;;;;5051322;28;20215;-80
2021/08/26 06:57:50;;;;;;;11.52;2.67;;;18.00;99.90;;;;;;5052391;28;20183;-81
2021/08/26 07:00:16;;;;;;;10.32;3.25;;;18.10;99.90;;;;;;5050871;28;20228;-81
2021/08/26 07:02:42;;;;;;;13.10;3.53;;;18.40;99.90;;;;;;5052388;28;20174;-80
2021/08/26 07:05:08;;;;;;;7.97;2.83;;;18.40;99.90;;;;;;5052528;28;20199;-81
2021/08/26 07:07:34;;;;;;;12.02;3.10;;;18.70;99.90;;;;;;5051166;28;20186;-80
2021/08/26 07:10:00;;;;;;;9.70;3.00;;;18.60;99.90;;;;;;5052688;28;20238;-83
2021/08/26 07:12:31;;;;;;;12.38;3.00;;;18.70;99.90;;;;;;5052770;28;20191;-83
2021/08/26 07:15:00;;;;;;;19.67;3.20;;;18.90;99.90;;;;;;5051527;28;20210;-82
2021/08/26 07:17:27;;;;;;;7.75;2.88;;;19.10;99.90;;;;;;5054668;28;20191;-81
2021/08/26 07:19:52;;;;;;;11.98;3.15;;;19.00;99.90;;;;;;5052611;28;20172;-80
2021/08/26 07:22:18;;;;;;;10.45;2.55;;;19.00;99.90;;;;;;5053492;28;20164;-83
2021/08/26 07:24:44;;;;;;;9.18;2.63;;;19.10;99.90;;;;;;5052064;28;20671;-87
2021/08/26 07:27:10;;;;;;;8.63;2.55;;;19.10;99.90;;;;;;5051339;28;20179;-82
2021/08/26 07:29:36;;;;;;;7.97;2.85;;;19.20;99.90;;;;;;5045326;28;20737;-82
2021/08/26 07:32:03;;;;;;;13.18;2.40;;;19.50;99.90;;;;;;5050669;28;20546;-84
2021/08/26 07:34:28;;;;;;;14.18;2.67;;;19.10;99.90;;;;;;5052783;28;20536;-85
2021/08/26 07:36:54;;;;;;;10.13;2.70;;;19.10;99.90;;;;;;5050084;28;20193;-86
2021/08/26 07:39:20;;;;;;;8.23;2.58;;;19.10;99.90;;;;;;5054136;28;20250;-87
2021/08/26 07:41:45;;;;;;;8.40;2.55;;;19.10;99.90;;;;;;5050344;28;20198;-79
2021/08/26 07:44:11;;;;;;;4.90;2.83;;;18.90;99.90;;;;;;5051232;28;20257;-81
2021/08/26 07:46:37;;;;;;;7.85;2.15;;;19.00;99.90;;;;;;5052811;28;20195;-87
2021/08/26 07:49:02;;;;;;;12.68;2.85;;;19.30;99.90;;;;;;5053191;28;20171;-83
2021/08/26 07:51:28;;;;;;;8.25;2.58;;;19.50;99.90;;;;;;5052953;28;20163;-88
2021/08/26 07:53:54;;;;;;;10.07;2.78;;;19.30;99.90;;;;;;5068071;28;20175;-78
2021/08/26 07:56:20;;;;;;;11.07;2.65;;;19.40;99.90;;;;;;5051983;28;20182;-84
2021/08/26 07:58:45;;;;;;;8.63;2.38;;;19.50;99.90;;;;;;5052819;28;20207;-85
2021/08/26 08:01:11;;;;;;;7.20;2.28;;;19.50;99.90;;;;;;5053933;28;20187;-88
2021/08/26 08:03:37;;;;;;;18.45;2.53;;;19.40;99.90;;;;;;5054116;28;20174;-87
2021/08/26 08:06:05;;;;;;;6.65;2.33;;;19.50;99.90;;;;;;5064951;28;20224;-84
2021/08/26 08:08:31;;;;;;;5.88;2.38;;;19.60;99.90;;;;;;5069204;28;20159;-88
2021/08/26 08:10:57;;;;;;;6.03;2.72;;;19.90;99.90;;;;;;5048296;28;20500;-84
2021/08/26 08:13:23;;;;;;;9.40;2.53;;;19.90;99.90;;;;;;5058233;28;20171;-86
2021/08/26 08:15:49;;;;;;;8.48;2.13;;;19.80;99.90;;;;;;5071601;28;20218;-88
2021/08/26 08:18:14;;;;;;;8.40;1.98;;;19.80;99.90;;;;;;5056377;28;20197;-87
2021/08/26 08:20:41;;;;;;;11.10;2.60;;;19.80;99.90;;;;;;5056739;28;20173;-83
2021/08/26 08:23:07;;;;;;;8.88;2.85;;;19.80;99.90;;;;;;5060693;28;20530;-85
2021/08/26 08:25:33;;;;;;;9.15;2.17;;;19.70;99.90;;;;;;5061811;28;20197;-82
2021/08/26 08:27:59;;;;;;;9.73;2.28;;;19.50;99.90;;;;;;5054982;28;20195;-85
2021/08/26 08:30:27;;;;;;;10.85;2.33;;;19.20;99.90;;;;;;5057452;28;20516;-84
2021/08/26 08:32:54;;;;;;;4.22;1.88;;;19.50;99.90;;;;;;5060384;28;20174;-83
2021/08/26 08:35:23;;;;;;;4.32;2.50;;;19.40;99.90;;;;;;5076358;28;20198;-86
2021/08/26 08:37:50;;;;;;;7.38;2.05;;;19.50;99.90;;;;;;5074310;28;20190;-82
2021/08/26 08:40:15;;;;;;;5.13;2.40;;;19.70;99.90;;;;;;5074717;28;20225;-81
2021/08/26 08:42:43;;;;;;;6.00;2.17;;;19.80;99.90;;;;;;5075402;28;20235;-89
2021/08/26 08:45:09;;;;;;;9.52;2.22;;;19.80;99.90;;;;;;5062051;28;20501;-81
2021/08/26 08:47:36;;;;;;;9.75;1.88;;;19.60;99.90;;;;;;5053848;28;20191;-84
2021/08/26 08:50:04;;;;;;;8.32;2.47;;;19.70;99.90;;;;;;5053296;28;20238;-82
2021/08/26 08:52:37;;;;;;;10.38;2.15;;;19.60;99.90;;;;;;5069988;28;20589;-82
2021/08/26 08:55:08;;;;;;;6.22;1.63;;;19.40;99.90;;;;;;5055633;28;20206;-81
2021/08/26 08:57:36;;;;;;;4.10;1.55;;;19.50;99.90;;;;;;5070500;28;20192;-82
2021/08/26 09:00:06;;;;;;;3.78;1.45;;;19.80;99.90;;;;;;5053792;28;20631;-81
2021/08/26 09:02:32;;;;;;;5.00;1.83;;;19.60;99.90;;;;;;5059582;28;20274;-82
2021/08/26 09:04:59;;;;;;;5.28;2.10;;;19.30;99.90;;;;;;5054075;28;20211;-82
2021/08/26 09:07:26;;;;;;;5.82;2.13;;;19.20;99.90;;;;;;5053478;28;20184;-81
2021/08/26 09:09:52;;;;;;;5.47;1.95;;;19.20;99.90;;;;;;5053592;28;20198;-81
2021/08/26 09:12:18;;;;;;;7.85;2.30;;;19.00;99.90;;;;;;5053148;28;20187;-82
2021/08/26 09:14:44;;;;;;;7.25;1.70;;;18.90;99.90;;;;;;5052654;28;20273;-80
2021/08/26 09:17:18;;;;;;;15.77;2.47;;;18.80;99.90;;;;;;5069895;28;20198;-81
2021/08/26 09:19:44;;;;;;;8.10;2.72;;;18.70;99.90;;;;;;5069241;28;20171;-81
2021/08/26 09:22:21;;;;;;;6.40;2.08;;;18.50;99.90;;;;;;5053117;28;20666;-82
2021/08/26 09:24:54;;;;;;;4.72;2.08;;;18.70;99.90;;;;;;5054358;28;20265;-82
2021/08/26 09:27:35;;;;;;;9.60;1.98;;;18.90;99.90;;;;;;5053664;28;20556;-82
2021/08/26 09:30:16;;;;;;;8.65;2.63;;;19.40;99.90;;;;;;5053612;28;20553;-82
2021/08/26 09:33:01;;;;;;;8.13;1.80;;;19.70;99.90;;;;;;5055202;28;20623;-82
2021/08/26 09:35:28;;;;;;;8.35;2.25;;;20.00;99.90;;;;;;5054556;28;20232;-82
2021/08/26 09:38:00;;;;;;;7.10;2.65;;;20.30;99.90;;;;;;5052755;28;20340;-81
2021/08/26 09:40:31;;;;;;;6.35;1.63;;;20.30;99.90;;;;;;5033407;28;20263;-82
2021/08/26 09:43:03;;;;;;;12.40;2.15;;;20.20;99.90;;;;;;5044063;28;20182;-81
2021/08/26 09:45:36;;;;;;;4.70;1.35;;;20.20;99.90;;;;;;5052930;28;20182;-82
2021/08/26 09:48:10;;;;;;;4.85;1.77;;;20.20;99.90;;;;;;5054388;28;20692;-81
2021/08/26 09:50:47;;;;;;;12.43;1.60;;;20.10;99.90;;;;;;5053572;28;20182;-82
2021/08/26 09:53:15;;;;;;;8.23;1.80;;;19.80;99.90;;;;;;5053242;28;20187;-81
2021/08/26 09:55:50;;;;;;;4.25;1.50;;;19.90;99.90;;;;;;5052700;28;20207;-81
2021/08/26 09:58:17;;;;;;;5.22;1.52;;;19.90;99.90;;;;;;5070852;28;20193;-82
2021/08/26 10:00:43;;;;;;;9.68;2.10;;;19.60;99.90;;;;;;5068928;28;20175;-82
2021/08/26 10:03:13;;;;;;;4.95;1.90;;;19.80;99.90;;;;;;5052261;28;20173;-81
2021/08/26 10:05:43;;;;;;;5.22;2.35;;;19.60;99.90;;;;;;5053055;28;20163;-82
2021/08/26 10:08:11;;;;;;;6.20;1.38;;;19.60;99.90;;;;;;5067036;28;20214;-82
2021/08/26 10:10:41;;;;;;;15.18;1.38;;;19.60;99.90;;;;;;5068543;28;20175;-82
2021/08/26 10:13:08;;;;;;;4.97;1.30;;;19.70;99.90;;;;;;5053703;28;20258;-82
2021/08/26 10:15:35;;;;;;;4.28;1.60;;;19.80;99.90;;;;;;5051880;28;20317;-82
2021/08/26 10:18:01;;;;;;;6.82;1.15;;;20.00;99.90;;;;;;5053444;28;20183;-82
2021/08/26 10:20:27;;;;;;;3.67;1.38;;;19.80;99.90;;;;;;5052662;28;20181;-82
2021/08/26 10:22:54;;;;;;;3.25;1.40;;;19.90;99.90;;;;;;5054038;28;20238;-81
2021/08/26 10:25:21;;;;;;;7.90;1.25;;;19.90;99.90;;;;;;5075545;22;20235;-81
2021/08/26 10:27:49;;;;;;;8.00;1.75;;;20.10;99.90;;;;;;5052557;28;20227;-82
2021/08/26 10:30:36;;;;;;;8.60;1.02;;;20.30;99.90;;;;;;5052709;28;20547;-82
2021/08/26 10:33:16;;;;;;;3.58;1.20;;;20.70;99.90;;;;;;5053121;28;20171;-82
2021/08/26 10:36:05;;;;;;;2.92;1.20;;;20.80;99.90;;;;;;5054415;28;20199;-82
2021/08/26 10:38:37;;;;;;;2.30;0.98;;;21.10;99.90;;;;;;5053596;28;20182;-83
2021/08/26 10:41:18;;;;;;;4.13;1.00;;;21.20;99.90;;;;;;5072249;28;20221;-81
2021/08/26 10:44:00;;;;;;;3.83;1.00;;;21.20;99.90;;;;;;5082550;28;20175;-82
2021/08/26 10:47:25;;;;;;;4.78;0.80;;;21.40;99.90;;;;;;5028960;28;21386;-81
2021/08/26 10:50:28;;;;;;;3.58;1.33;;;21.50;99.90;;;;;;4993802;28;20180;-84
2021/08/26 10:52:54;;;;;;;5.72;1.85;;;21.20;99.90;;;;;;5011809;28;20202;-83
2021/08/26 10:55:31;;;;;;;9.15;2.08;;;20.80;99.90;;;;;;5060191;28;20241;-83
2021/08/26 10:58:25;;;;;;;1.15;0.60;;;21.00;99.90;;;;;;5068512;28;20201;-84
2021/08/26 11:00:59;;;;;;;2.00;1.10;;;20.40;99.90;;;;;;5073989;28;20182;-82
2021/08/26 11:03:56;;;;;;;3.28;0.98;;;20.20;99.90;;;;;;5046223;28;20171;-84
2021/08/26 11:06:24;;;;;;;1.73;1.00;;;20.60;99.90;;;;;;5052978;28;20266;-84
2021/08/26 11:08:59;;;;;;;4.90;1.33;;;20.70;99.90;;;;;;5055350;28;20190;-84
2021/08/26 11:11:28;;;;;;;4.25;1.77;;;20.70;99.90;;;;;;5055898;28;20252;-84
2021/08/26 11:14:23;;;;;;;7.53;1.52;;;20.70;99.90;;;;;;5053722;28;20245;-83
2021/08/26 11:16:56;;;;;;;10.85;1.55;;;20.70;99.90;;;;;;5075311;28;20201;-83
2021/08/26 11:19:26;;;;;;;6.95;1.30;;;20.00;99.90;;;;;;5056046;28;20635;-84
2021/08/26 11:21:51;;;;;;;5.43;1.35;;;19.60;99.90;;;;;;5053998;28;20205;-84
2021/08/26 11:24:20;;;;;;;6.80;1.65;;;19.40;99.90;;;;;;5054315;28;20167;-83
2021/08/26 11:26:55;;;;;;;2.75;1.15;;;19.50;99.90;;;;;;5052716;28;20195;-83
2021/08/26 11:29:21;;;;;;;4.78;1.10;;;19.70;99.90;;;;;;5069814;28;20167;-85
2021/08/26 11:31:58;;;;;;;6.68;1.23;;;19.90;99.90;;;;;;5073359;28;20202;-84
2021/08/26 11:34:32;;;;;;;4.70;1.30;;;19.70;99.90;;;;;;5069691;28;20217;-83
2021/08/26 11:37:13;;;;;;;4.93;1.02;;;19.90;99.90;;;;;;5070729;28;20202;-83
2021/08/26 11:40:00;;;;;;;7.25;1.00;;;19.70;99.90;;;;;;5053513;28;20179;-83
2021/08/26 11:42:38;;;;;;;2.13;0.85;;;20.20;99.90;;;;;;5056267;28;20386;-84
2021/08/26 11:45:26;;;;;;;1.73;0.90;;;20.20;99.90;;;;;;5054152;28;20233;-82
2021/08/26 11:47:58;;;;;;;0.80;0.52;;;20.30;99.90;;;;;;5057260;28;20183;-85
2021/08/26 11:50:26;;;;;;;2.70;1.20;;;20.60;99.90;;;;;;5066573;28;20210;-82
2021/08/26 11:53:02;;;;;;;3.78;0.70;;;21.10;99.90;;;;;;5060379;28;20209;-82
2021/08/26 11:55:50;;;;;;;1.52;0.77;;;21.20;99.90;;;;;;5062719;28;20270;-82
2021/08/26 11:58:16;;;;;;;1.00;0.50;;;20.70;99.90;;;;;;5058870;28;20194;-83
2021/08/26 12:00:53;;;;;;;3.45;0.70;;;20.60;99.90;;;;;;5060309;28;20216;-82
2021/08/26 12:03:18;;;;;;;2.42;0.70;;;20.40;99.90;;;;;;5062864;28;20224;-81
2021/08/26 12:05:45;;;;;;;2.38;0.88;;;20.60;99.90;;;;;;5074725;28;20242;-82
2021/08/26 12:08:11;;;;;;;4.50;0.95;;;20.60;99.90;;;;;;5071652;28;20206;-83
2021/08/26 12:10:44;;;;;;;2.67;0.80;;;20.90;99.90;;;;;;5060188;28;20159;-83
2021/08/26 12:13:20;;;;;;;2.17;0.52;;;20.80;99.90;;;;;;5060019;28;20210;-81
2021/08/26 12:15:55;;;;;;;4.13;0.68;;;20.70;99.90;;;;;;5057083;28;20230;-82
2021/08/26 12:18:29;;;;;;;2.58;0.68;;;20.50;99.90;;;;;;5057944;28;20202;-81
2021/08/26 12:20:58;;;;;;;2.00;0.73;;;20.50;99.90;;;;;;5058296;28;20171;-83
2021/08/26 12:23:26;;;;;;;1.90;0.85;;;20.40;99.90;;;;;;5058138;28;20194;-81
2021/08/26 12:26:09;;;;;;;3.10;0.75;;;20.30;99.90;;;;;;5055359;28;20225;-80
2021/08/26 12:28:46;;;;;;;1.63;0.65;;;20.00;99.90;;;;;;5054004;28;20524;-83
2021/08/26 12:31:18;;;;;;;2.03;0.90;;;19.90;99.90;;;;;;5035286;28;20163;-80
2021/08/26 12:34:07;;;;;;;2.85;1.42;;;19.70;99.90;;;;;;5035229;28;20172;-79
2021/08/26 12:36:35;;;;;;;0.93;0.63;;;19.50;99.90;;;;;;5037886;28;20562;-81
2021/08/26 12:39:01;;;;;;;4.07;0.80;;;19.30;99.90;;;;;;5056757;28;20202;-83
2021/08/26 12:41:27;;;;;;;2.33;0.63;;;19.40;99.90;;;;;;5058788;28;20216;-82
2021/08/26 12:43:57;;;;;;;3.72;1.33;;;19.40;99.90;;;;;;5051102;28;20187;-82
2021/08/26 12:46:25;;;;;;;3.95;0.90;;;19.70;99.90;;;;;;5058829;28;20175;-82
2021/08/26 12:49:04;;;;;;;3.60;0.88;;;19.90;99.90;;;;;;5057403;28;20172;-83
2021/08/26 12:51:30;;;;;;;3.13;1.33;;;19.80;99.90;;;;;;5063984;28;20178;-85
2021/08/26 12:54:01;;;;;;;1.30;0.82;;;19.60;99.90;;;;;;5060833;28;20182;-82
2021/08/26 12:56:28;;;;;;;3.13;1.05;;;19.50;99.90;;;;;;5060918;28;20241;-85
2021/08/26 12:59:06;;;;;;;1.80;1.15;;;19.40;99.90;;;;;;5057666;28;20179;-85
2021/08/26 13:01:33;;;;;;;2.65;1.00;;;19.60;99.90;;;;;;5052945;28;20609;-82